sensor_id;sensor_type;location;lat;lon;timestamp;temperature;humidity
31309;DHT22;17936;52.446;10.840;2022-10-16T00:01:57;15.00;99.90
31309;DHT22;17936;52.446;10.840;2022-10-16T00:04:22;14.90;99.90
31309;DHT22;17936;52.446;10.840;2022-10-16T00:06:48;14.80;99.90
31309;DHT22;17936;52.446;10.840;2022-10-16T00:09:13;14.80;99.90
31309;DHT22;17936;52.446;10.840;2022-10-16T00:11:39;14.80;99.90
31309;DHT22;17936;52.446;10.840;2022-10-16T00:14:14;14.80;99.90
31309;DHT22;17936;52.446;10.840;2022-10-16T00:16:40;14.70;99.90
31309;DHT22;17936;52.446;10.840;2022-10-16T00:19:06;14.60;99.90
31309;DHT22;17936;52.446;10.840;2022-10-16T00:21:32;14.40;99.90
31309;DHT22;17936;52.446;10.840;2022-10-16T00:24:00;14.30;99.90
31309;DHT22;17936;52.446;10.840;2022-10-16T00:26:27;14.30;99.90
31309;DHT22;17936;52.446;10.840;2022-10-16T00:28:53;14.20;99.90
31309;DHT22;17936;52.446;10.840;2022-10-16T00:31:20;14.20;99.90
31309;DHT22;17936;52.446;10.840;2022-10-16T00:33:46;14.10;99.90
31309;DHT22;17936;52.446;10.840;2022-10-16T00:36:15;13.90;99.90
31309;DHT22;17936;52.446;10.840;2022-10-16T00:38:41;13.90;99.90
31309;DHT22;17936;52.446;10.840;2022-10-16T00:41:10;13.90;99.90
31309;DHT22;17936;52.446;10.840;2022-10-16T00:43:40;13.80;99.90
31309;DHT22;17936;52.446;10.840;2022-10-16T00:46:21;13.80;99.90
31309;DHT22;17936;52.446;10.840;2022-10-16T00:48:56;13.60;99.90
31309;DHT22;17936;52.446;10.840;2022-10-16T00:51:26;13.40;99.90
31309;DHT22;17936;52.446;10.840;2022-10-16T00:53:54;13.40;99.90
31309;DHT22;17936;52.446;10.840;2022-10-16T00:56:20;13.30;99.90
31309;DHT22;17936;52.446;10.840;2022-10-16T00:58:46;13.30;99.90
31309;DHT22;17936;52.446;10.840;2022-10-16T01:01:12;13.40;99.90
31309;DHT22;17936;52.446;10.840;2022-10-16T01:03:37;13.50;99.90
31309;DHT22;17936;52.446;10.840;2022-10-16T01:06:24;13.60;99.90
31309;DHT22;17936;52.446;10.840;2022-10-16T01:09:12;13.60;99.90
31309;DHT22;17936;52.446;10.840;2022-10-16T01:11:44;13.70;99.90
31309;DHT22;17936;52.446;10.840;2022-10-16T01:14:40;13.70;99.90
31309;DHT22;17936;52.446;10.840;2022-10-16T01:17:25;13.80;99.90
31309;DHT22;17936;52.446;10.840;2022-10-16T01:20:08;13.80;99.90
31309;DHT22;17936;52.446;10.840;2022-10-16T01:22:56;13.70;99.90
31309;DHT22;17936;52.446;10.840;2022-10-16T01:25:36;13.70;99.90
31309;DHT22;17936;52.446;10.840;2022-10-16T01:28:05;13.80;99.90
31309;DHT22;17936;52.446;10.840;2022-10-16T01:30:32;13.80;99.90
31309;DHT22;17936;52.446;10.840;2022-10-16T01:33:16;13.70;99.90
31309;DHT22;17936;52.446;10.840;2022-10-16T01:35:53;13.70;99.90
31309;DHT22;17936;52.446;10.840;2022-10-16T01:38:35;13.60;99.90
31309;DHT22;17936;52.446;10.840;2022-10-16T01:41:32;13.60;99.90
31309;DHT22;17936;52.446;10.840;2022-10-16T01:44:10;13.50;99.90
31309;DHT22;17936;52.446;10.840;2022-10-16T01:46:39;13.60;99.90
31309;DHT22;17936;52.446;10.840;2022-10-16T01:49:06;13.60;99.90
31309;DHT22;17936;52.446;10.840;2022-10-16T01:51:32;13.60;99.90
31309;DHT22;17936;52.446;10.840;2022-10-16T01:54:00;13.60;99.90
31309;DHT22;17936;52.446;10.840;2022-10-16T01:56:27;13.60;99.90
31309;DHT22;17936;52.446;10.840;2022-10-16T01:59:03;13.60;99.90
31309;DHT22;17936;52.446;10.840;2022-10-16T02:01:33;13.70;99.90
31309;DHT22;17936;52.446;10.840;2022-10-16T02:04:04;13.70;99.90
31309;DHT22;17936;52.446;10.840;2022-10-16T02:06:32;13.60;99.90
31309;DHT22;17936;52.446;10.840;2022-10-16T02:08:59;13.50;99.90
31309;DHT22;17936;52.446;10.840;2022-10-16T02:11:24;13.50;99.90
31309;DHT22;17936;52.446;10.840;2022-10-16T02:13:55;13.50;99.90
31309;DHT22;17936;52.446;10.840;2022-10-16T02:16:39;13.60;99.90
31309;DHT22;17936;52.446;10.840;2022-10-16T02:19:06;13.60;99.90
31309;DHT22;17936;52.446;10.840;2022-10-16T02:21:48;13.60;99.90
31309;DHT22;17936;52.446;10.840;2022-10-16T02:24:23;13.70;99.90
31309;DHT22;17936;52.446;10.840;2022-10-16T02:27:03;13.70;99.90
31309;DHT22;17936;52.446;10.840;2022-10-16T02:29:32;13.70;99.90
31309;DHT22;17936;52.446;10.840;2022-10-16T02:32:04;13.60;99.90
31309;DHT22;17936;52.446;10.840;2022-10-16T02:34:32;13.60;99.90
31309;DHT22;17936;52.446;10.840;2022-10-16T02:36:59;13.60;99.90
31309;DHT22;17936;52.446;10.840;2022-10-16T02:39:27;13.60;99.90
31309;DHT22;17936;52.446;10.840;2022-10-16T02:41:53;13.60;99.90
31309;DHT22;17936;52.446;10.840;2022-10-16T02:44:19;13.60;99.90
31309;DHT22;17936;52.446;10.840;2022-10-16T02:46:44;13.60;99.90
31309;DHT22;17936;52.446;10.840;2022-10-16T02:49:10;13.60;99.90
31309;DHT22;17936;52.446;10.840;2022-10-16T02:51:35;13.60;99.90
31309;DHT22;17936;52.446;10.840;2022-10-16T02:54:02;13.70;99.90
31309;DHT22;17936;52.446;10.840;2022-10-16T02:56:27;13.70;99.90
31309;DHT22;17936;52.446;10.840;2022-10-16T02:58:53;13.70;99.90
31309;DHT22;17936;52.446;10.840;2022-10-16T03:01:18;13.70;99.90
31309;DHT22;17936;52.446;10.840;2022-10-16T03:03:44;13.70;99.90
31309;DHT22;17936;52.446;10.840;2022-10-16T03:06:09;13.70;99.90
31309;DHT22;17936;52.446;10.840;2022-10-16T03:08:35;13.70;99.90
31309;DHT22;17936;52.446;10.840;2022-10-16T03:11:00;13.70;99.90
31309;DHT22;17936;52.446;10.840;2022-10-16T03:13:26;13.70;99.90
31309;DHT22;17936;52.446;10.840;2022-10-16T03:15:51;13.60;99.90
31309;DHT22;17936;52.446;10.840;2022-10-16T03:18:16;13.60;99.90
31309;DHT22;17936;52.446;10.840;2022-10-16T03:20:43;13.60;99.90
31309;DHT22;17936;52.446;10.840;2022-10-16T03:23:08;13.60;99.90
31309;DHT22;17936;52.446;10.840;2022-10-16T03:25:34;13.60;99.90
31309;DHT22;17936;52.446;10.840;2022-10-16T03:27:59;13.60;99.90
31309;DHT22;17936;52.446;10.840;2022-10-16T03:30:25;13.50;99.90
31309;DHT22;17936;52.446;10.840;2022-10-16T03:32:50;13.50;99.90
31309;DHT22;17936;52.446;10.840;2022-10-16T03:35:19;13.50;99.90
31309;DHT22;17936;52.446;10.840;2022-10-16T03:37:45;13.40;99.90
31309;DHT22;17936;52.446;10.840;2022-10-16T03:40:10;13.50;99.90
31309;DHT22;17936;52.446;10.840;2022-10-16T03:42:36;13.40;99.90
31309;DHT22;17936;52.446;10.840;2022-10-16T03:45:01;13.40;99.90
31309;DHT22;17936;52.446;10.840;2022-10-16T03:47:27;13.30;99.90
31309;DHT22;17936;52.446;10.840;2022-10-16T03:49:53;13.30;99.90
31309;DHT22;17936;52.446;10.840;2022-10-16T03:52:18;13.20;99.90
31309;DHT22;17936;52.446;10.840;2022-10-16T03:54:44;13.00;99.90
31309;DHT22;17936;52.446;10.840;2022-10-16T03:57:09;13.00;99.90
31309;DHT22;17936;52.446;10.840;2022-10-16T03:59:35;12.80;99.90
31309;DHT22;17936;52.446;10.840;2022-10-16T04:02:00;12.80;99.90
31309;DHT22;17936;52.446;10.840;2022-10-16T04:04:25;12.70;99.90
31309;DHT22;17936;52.446;10.840;2022-10-16T04:06:51;12.70;99.90
31309;DHT22;17936;52.446;10.840;2022-10-16T04:09:16;12.70;99.90
31309;DHT22;17936;52.446;10.840;2022-10-16T04:11:42;12.60;99.90
31309;DHT22;17936;52.446;10.840;2022-10-16T04:14:08;12.50;99.90
31309;DHT22;17936;52.446;10.840;2022-10-16T04:16:33;12.50;99.90
31309;DHT22;17936;52.446;10.840;2022-10-16T04:18:59;12.50;99.90
31309;DHT22;17936;52.446;10.840;2022-10-16T04:21:24;12.50;99.90
31309;DHT22;17936;52.446;10.840;2022-10-16T04:23:50;12.50;99.90
31309;DHT22;17936;52.446;10.840;2022-10-16T04:26:15;12.50;99.90
31309;DHT22;17936;52.446;10.840;2022-10-16T04:28:41;12.40;99.90
31309;DHT22;17936;52.446;10.840;2022-10-16T04:31:06;12.40;99.90
31309;DHT22;17936;52.446;10.840;2022-10-16T04:33:33;12.40;99.90
31309;DHT22;17936;52.446;10.840;2022-10-16T04:35:59;12.40;99.90
31309;DHT22;17936;52.446;10.840;2022-10-16T04:38:25;12.40;99.90
31309;DHT22;17936;52.446;10.840;2022-10-16T04:40:52;12.40;99.90
31309;DHT22;17936;52.446;10.840;2022-10-16T04:43:17;12.40;99.90
31309;DHT22;17936;52.446;10.840;2022-10-16T04:45:43;12.40;99.90
31309;DHT22;17936;52.446;10.840;2022-10-16T04:48:08;12.40;99.90
31309;DHT22;17936;52.446;10.840;2022-10-16T04:50:34;12.30;99.90
31309;DHT22;17936;52.446;10.840;2022-10-16T04:52:59;12.30;99.90
31309;DHT22;17936;52.446;10.840;2022-10-16T04:55:25;12.30;99.90
31309;DHT22;17936;52.446;10.840;2022-10-16T04:57:50;12.20;99.90
31309;DHT22;17936;52.446;10.840;2022-10-16T05:00:16;12.20;99.90
31309;DHT22;17936;52.446;10.840;2022-10-16T05:02:41;12.20;99.90
31309;DHT22;17936;52.446;10.840;2022-10-16T05:05:07;12.10;99.90
31309;DHT22;17936;52.446;10.840;2022-10-16T05:07:33;12.10;99.90
31309;DHT22;17936;52.446;10.840;2022-10-16T05:09:58;12.10;99.90
31309;DHT22;17936;52.446;10.840;2022-10-16T05:12:23;12.10;99.90
31309;DHT22;17936;52.446;10.840;2022-10-16T05:14:49;12.00;99.90
31309;DHT22;17936;52.446;10.840;2022-10-16T05:17:14;12.00;99.90
31309;DHT22;17936;52.446;10.840;2022-10-16T05:19:40;12.00;99.90
31309;DHT22;17936;52.446;10.840;2022-10-16T05:22:05;11.90;99.90
31309;DHT22;17936;52.446;10.840;2022-10-16T05:24:31;12.00;99.90
31309;DHT22;17936;52.446;10.840;2022-10-16T05:26:56;11.90;99.90
31309;DHT22;17936;52.446;10.840;2022-10-16T05:29:22;11.90;99.90
31309;DHT22;17936;52.446;10.840;2022-10-16T05:31:52;11.90;99.90
31309;DHT22;17936;52.446;10.840;2022-10-16T05:34:18;11.80;99.90
31309;DHT22;17936;52.446;10.840;2022-10-16T05:36:43;11.80;99.90
31309;DHT22;17936;52.446;10.840;2022-10-16T05:39:10;11.80;99.90
31309;DHT22;17936;52.446;10.840;2022-10-16T05:41:36;11.90;99.90
31309;DHT22;17936;52.446;10.840;2022-10-16T05:44:04;12.00;99.90
31309;DHT22;17936;52.446;10.840;2022-10-16T05:46:30;12.00;99.90
31309;DHT22;17936;52.446;10.840;2022-10-16T05:48:56;12.00;99.90
31309;DHT22;17936;52.446;10.840;2022-10-16T05:51:21;12.20;99.90
31309;DHT22;17936;52.446;10.840;2022-10-16T05:53:47;12.10;99.90
31309;DHT22;17936;52.446;10.840;2022-10-16T05:56:12;12.00;99.90
31309;DHT22;17936;52.446;10.840;2022-10-16T05:58:38;12.00;99.90
31309;DHT22;17936;52.446;10.840;2022-10-16T06:01:16;11.90;99.90
31309;DHT22;17936;52.446;10.840;2022-10-16T06:03:42;11.90;99.90
31309;DHT22;17936;52.446;10.840;2022-10-16T06:06:16;11.90;99.90
31309;DHT22;17936;52.446;10.840;2022-10-16T06:08:42;11.90;99.90
31309;DHT22;17936;52.446;10.840;2022-10-16T06:11:13;11.90;99.90
31309;DHT22;17936;52.446;10.840;2022-10-16T06:13:39;11.90;99.90
31309;DHT22;17936;52.446;10.840;2022-10-16T06:16:07;12.00;99.90
31309;DHT22;17936;52.446;10.840;2022-10-16T06:18:33;12.00;99.90
31309;DHT22;17936;52.446;10.840;2022-10-16T06:20:59;12.10;99.90
31309;DHT22;17936;52.446;10.840;2022-10-16T06:23:25;12.10;99.90
31309;DHT22;17936;52.446;10.840;2022-10-16T06:25:50;12.20;99.90
31309;DHT22;17936;52.446;10.840;2022-10-16T06:28:16;12.20;99.90
31309;DHT22;17936;52.446;10.840;2022-10-16T06:30:42;12.30;99.90
31309;DHT22;17936;52.446;10.840;2022-10-16T06:33:09;12.30;99.90
31309;DHT22;17936;52.446;10.840;2022-10-16T06:35:35;12.30;99.90
31309;DHT22;17936;52.446;10.840;2022-10-16T06:38:01;12.30;99.90
31309;DHT22;17936;52.446;10.840;2022-10-16T06:40:26;12.30;99.90
31309;DHT22;17936;52.446;10.840;2022-10-16T06:42:54;12.40;99.90
31309;DHT22;17936;52.446;10.840;2022-10-16T06:45:20;12.40;99.90
31309;DHT22;17936;52.446;10.840;2022-10-16T06:47:46;12.50;99.90
31309;DHT22;17936;52.446;10.840;2022-10-16T06:50:11;12.50;99.90
31309;DHT22;17936;52.446;10.840;2022-10-16T06:52:37;12.50;99.90
31309;DHT22;17936;52.446;10.840;2022-10-16T06:55:02;12.60;99.90
31309;DHT22;17936;52.446;10.840;2022-10-16T06:57:28;12.60;99.90
31309;DHT22;17936;52.446;10.840;2022-10-16T06:59:54;12.70;99.90
31309;DHT22;17936;52.446;10.840;2022-10-16T07:02:19;12.90;99.90
31309;DHT22;17936;52.446;10.840;2022-10-16T07:04:45;13.00;99.90
31309;DHT22;17936;52.446;10.840;2022-10-16T07:07:10;13.10;99.90
31309;DHT22;17936;52.446;10.840;2022-10-16T07:09:38;13.30;99.90
31309;DHT22;17936;52.446;10.840;2022-10-16T07:12:05;13.50;99.90
31309;DHT22;17936;52.446;10.840;2022-10-16T07:14:30;13.80;99.90
31309;DHT22;17936;52.446;10.840;2022-10-16T07:16:56;13.60;99.90
31309;DHT22;17936;52.446;10.840;2022-10-16T07:19:21;13.90;99.90
31309;DHT22;17936;52.446;10.840;2022-10-16T07:21:47;14.30;99.90
31309;DHT22;17936;52.446;10.840;2022-10-16T07:24:16;14.80;99.90
31309;DHT22;17936;52.446;10.840;2022-10-16T07:26:43;14.70;99.90
31309;DHT22;17936;52.446;10.840;2022-10-16T07:29:20;15.00;99.90
31309;DHT22;17936;52.446;10.840;2022-10-16T07:31:47;15.10;99.90
31309;DHT22;17936;52.446;10.840;2022-10-16T07:34:14;15.60;99.90
31309;DHT22;17936;52.446;10.840;2022-10-16T07:36:40;15.90;99.90
31309;DHT22;17936;52.446;10.840;2022-10-16T07:39:06;16.10;99.90
31309;DHT22;17936;52.446;10.840;2022-10-16T07:41:31;16.20;99.90
31309;DHT22;17936;52.446;10.840;2022-10-16T07:43:58;16.40;99.90
31309;DHT22;17936;52.446;10.840;2022-10-16T07:46:26;16.40;99.90
31309;DHT22;17936;52.446;10.840;2022-10-16T07:48:51;16.50;99.90
31309;DHT22;17936;52.446;10.840;2022-10-16T07:51:19;16.60;99.90
31309;DHT22;17936;52.446;10.840;2022-10-16T07:53:45;17.00;99.90
31309;DHT22;17936;52.446;10.840;2022-10-16T07:56:12;17.30;99.90
31309;DHT22;17936;52.446;10.840;2022-10-16T07:58:37;17.60;99.90
31309;DHT22;17936;52.446;10.840;2022-10-16T08:01:05;17.80;99.90
31309;DHT22;17936;52.446;10.840;2022-10-16T08:03:30;18.10;99.90
31309;DHT22;17936;52.446;10.840;2022-10-16T08:05:57;17.60;99.90
31309;DHT22;17936;52.446;10.840;2022-10-16T08:08:23;17.10;99.90
31309;DHT22;17936;52.446;10.840;2022-10-16T08:10:48;17.20;99.90
31309;DHT22;17936;52.446;10.840;2022-10-16T08:13:14;17.30;99.90
31309;DHT22;17936;52.446;10.840;2022-10-16T08:15:41;17.80;99.90
31309;DHT22;17936;52.446;10.840;2022-10-16T08:18:07;18.40;99.90
31309;DHT22;17936;52.446;10.840;2022-10-16T08:20:33;18.20;99.90
31309;DHT22;17936;52.446;10.840;2022-10-16T08:22:59;17.80;99.90
31309;DHT22;17936;52.446;10.840;2022-10-16T08:25:25;18.00;99.90
31309;DHT22;17936;52.446;10.840;2022-10-16T08:27:51;17.90;99.90
31309;DHT22;17936;52.446;10.840;2022-10-16T08:30:18;17.60;99.90
31309;DHT22;17936;52.446;10.840;2022-10-16T08:32:44;17.40;99.90
31309;DHT22;17936;52.446;10.840;2022-10-16T08:35:11;17.20;99.90
31309;DHT22;17936;52.446;10.840;2022-10-16T08:37:37;17.50;99.90
31309;DHT22;17936;52.446;10.840;2022-10-16T08:40:05;17.90;99.90
31309;DHT22;17936;52.446;10.840;2022-10-16T08:48:08;17.50;99.90
31309;DHT22;17936;52.446;10.840;2022-10-16T08:50:38;17.60;99.90
31309;DHT22;17936;52.446;10.840;2022-10-16T08:53:05;17.90;99.90
31309;DHT22;17936;52.446;10.840;2022-10-16T08:55:48;18.20;99.90
31309;DHT22;17936;52.446;10.840;2022-10-16T08:58:16;17.80;99.90
31309;DHT22;17936;52.446;10.840;2022-10-16T09:00:46;17.50;99.90
31309;DHT22;17936;52.446;10.840;2022-10-16T09:03:42;17.40;99.90
31309;DHT22;17936;52.446;10.840;2022-10-16T09:06:41;17.20;99.90
31309;DHT22;17936;52.446;10.840;2022-10-16T09:12:08;18.30;99.90
31309;DHT22;17936;52.446;10.840;2022-10-16T09:20:09;18.40;99.90
31309;DHT22;17936;52.446;10.840;2022-10-16T09:22:38;18.60;99.90
31309;DHT22;17936;52.446;10.840;2022-10-16T09:25:12;18.70;99.90
31309;DHT22;17936;52.446;10.840;2022-10-16T09:27:39;18.40;99.90
31309;DHT22;17936;52.446;10.840;2022-10-16T09:30:16;18.10;99.90
31309;DHT22;17936;52.446;10.840;2022-10-16T09:32:44;18.30;99.90
31309;DHT22;17936;52.446;10.840;2022-10-16T09:35:22;18.30;99.90
31309;DHT22;17936;52.446;10.840;2022-10-16T09:37:51;17.90;99.90
31309;DHT22;17936;52.446;10.840;2022-10-16T09:40:34;17.70;99.90
31309;DHT22;17936;52.446;10.840;2022-10-16T09:43:20;17.70;99.90
31309;DHT22;17936;52.446;10.840;2022-10-16T09:46:02;17.90;99.90
31309;DHT22;17936;52.446;10.840;2022-10-16T09:48:39;17.80;99.90
31309;DHT22;17936;52.446;10.840;2022-10-16T09:53:47;18.40;99.90
31309;DHT22;17936;52.446;10.840;2022-10-16T09:56:35;18.30;99.90
31309;DHT22;17936;52.446;10.840;2022-10-16T09:59:16;18.60;99.90
31309;DHT22;17936;52.446;10.840;2022-10-16T10:01:45;18.80;99.90
31309;DHT22;17936;52.446;10.840;2022-10-16T10:04:12;18.70;99.90
31309;DHT22;17936;52.446;10.840;2022-10-16T10:09:23;19.00;99.90
31309;DHT22;17936;52.446;10.840;2022-10-16T13:08:41;19.60;99.90
31309;DHT22;17936;52.446;10.840;2022-10-16T13:11:23;19.70;99.90
31309;DHT22;17936;52.446;10.840;2022-10-16T13:14:17;19.70;99.90
31309;DHT22;17936;52.446;10.840;2022-10-16T13:22:18;20.10;99.90
31309;DHT22;17936;52.446;10.840;2022-10-16T13:25:09;20.00;99.90
31309;DHT22;17936;52.446;10.840;2022-10-16T13:30:18;19.20;99.90
31309;DHT22;17936;52.446;10.840;2022-10-16T13:32:49;19.10;99.90
31309;DHT22;17936;52.446;10.840;2022-10-16T13:35:31;19.00;99.90
31309;DHT22;17936;52.446;10.840;2022-10-16T13:38:13;18.80;99.90
31309;DHT22;17936;52.446;10.840;2022-10-16T13:41:00;18.80;99.90
31309;DHT22;17936;52.446;10.840;2022-10-16T13:43:39;18.70;99.90
31309;DHT22;17936;52.446;10.840;2022-10-16T13:46:20;18.70;99.90
31309;DHT22;17936;52.446;10.840;2022-10-16T13:49:01;18.70;99.90
31309;DHT22;17936;52.446;10.840;2022-10-16T13:51:28;18.70;99.90
31309;DHT22;17936;52.446;10.840;2022-10-16T13:53:56;18.90;99.90
31309;DHT22;17936;52.446;10.840;2022-10-16T13:56:25;19.10;99.90
31309;DHT22;17936;52.446;10.840;2022-10-16T13:59:00;19.40;99.90
31309;DHT22;17936;52.446;10.840;2022-10-16T14:01:35;19.50;99.90
31309;DHT22;17936;52.446;10.840;2022-10-16T14:04:10;19.20;99.90
31309;DHT22;17936;52.446;10.840;2022-10-16T14:06:39;19.30;99.90
31309;DHT22;17936;52.446;10.840;2022-10-16T14:09:26;19.40;99.90
31309;DHT22;17936;52.446;10.840;2022-10-16T14:12:01;19.60;99.90
31309;DHT22;17936;52.446;10.840;2022-10-16T14:14:40;19.70;99.90
31309;DHT22;17936;52.446;10.840;2022-10-16T14:17:06;19.80;99.90
31309;DHT22;17936;52.446;10.840;2022-10-16T14:19:38;19.80;99.90
31309;DHT22;17936;52.446;10.840;2022-10-16T14:22:23;19.60;99.90
31309;DHT22;17936;52.446;10.840;2022-10-16T14:24:50;19.60;99.90
31309;DHT22;17936;52.446;10.840;2022-10-16T14:27:35;19.60;99.90
31309;DHT22;17936;52.446;10.840;2022-10-16T14:30:17;19.60;99.90
31309;DHT22;17936;52.446;10.840;2022-10-16T14:32:57;19.50;99.90
31309;DHT22;17936;52.446;10.840;2022-10-16T14:35:32;19.50;99.90
31309;DHT22;17936;52.446;10.840;2022-10-16T14:37:59;19.50;99.90
31309;DHT22;17936;52.446;10.840;2022-10-16T14:40:28;19.40;99.90
31309;DHT22;17936;52.446;10.840;2022-10-16T14:42:54;19.50;99.90
31309;DHT22;17936;52.446;10.840;2022-10-16T14:45:22;19.40;99.90
31309;DHT22;17936;52.446;10.840;2022-10-16T14:47:57;19.40;99.90
31309;DHT22;17936;52.446;10.840;2022-10-16T14:50:23;19.50;99.90
31309;DHT22;17936;52.446;10.840;2022-10-16T14:52:49;19.50;99.90
31309;DHT22;17936;52.446;10.840;2022-10-16T14:55:15;19.50;99.90
31309;DHT22;17936;52.446;10.840;2022-10-16T14:57:42;19.50;99.90
31309;DHT22;17936;52.446;10.840;2022-10-16T15:00:19;19.50;99.90
31309;DHT22;17936;52.446;10.840;2022-10-16T15:02:46;19.40;99.90
31309;DHT22;17936;52.446;10.840;2022-10-16T15:05:20;19.30;99.90
31309;DHT22;17936;52.446;10.840;2022-10-16T15:07:46;19.40;99.90
31309;DHT22;17936;52.446;10.840;2022-10-16T15:10:16;19.30;99.90
31309;DHT22;17936;52.446;10.840;2022-10-16T15:12:42;19.20;99.90
31309;DHT22;17936;52.446;10.840;2022-10-16T15:17:52;19.20;99.90
31309;DHT22;17936;52.446;10.840;2022-10-16T15:20:20;19.10;99.90
31309;DHT22;17936;52.446;10.840;2022-10-16T15:22:46;19.10;99.90
31309;DHT22;17936;52.446;10.840;2022-10-16T15:25:32;19.00;99.90
31309;DHT22;17936;52.446;10.840;2022-10-16T15:27:59;19.00;99.90
31309;DHT22;17936;52.446;10.840;2022-10-16T15:30:25;18.90;99.90
31309;DHT22;17936;52.446;10.840;2022-10-16T15:32:51;18.80;99.90
31309;DHT22;17936;52.446;10.840;2022-10-16T15:35:16;18.80;99.90
31309;DHT22;17936;52.446;10.840;2022-10-16T15:37:42;18.60;99.90
31309;DHT22;17936;52.446;10.840;2022-10-16T15:40:09;18.50;99.90
31309;DHT22;17936;52.446;10.840;2022-10-16T15:42:35;18.50;99.90
31309;DHT22;17936;52.446;10.840;2022-10-16T15:45:00;18.50;99.90
31309;DHT22;17936;52.446;10.840;2022-10-16T15:47:26;18.40;99.90
31309;DHT22;17936;52.446;10.840;2022-10-16T15:49:51;18.40;99.90
31309;DHT22;17936;52.446;10.840;2022-10-16T15:52:17;18.20;99.90
31309;DHT22;17936;52.446;10.840;2022-10-16T15:54:43;18.10;99.90
31309;DHT22;17936;52.446;10.840;2022-10-16T15:57:08;18.10;99.90
31309;DHT22;17936;52.446;10.840;2022-10-16T15:59:34;17.90;99.90
31309;DHT22;17936;52.446;10.840;2022-10-16T16:01:59;17.90;99.90
31309;DHT22;17936;52.446;10.840;2022-10-16T16:04:25;17.90;99.90
31309;DHT22;17936;52.446;10.840;2022-10-16T16:06:50;17.80;99.90
31309;DHT22;17936;52.446;10.840;2022-10-16T16:09:16;17.60;99.90
31309;DHT22;17936;52.446;10.840;2022-10-16T16:11:42;17.30;99.90
31309;DHT22;17936;52.446;10.840;2022-10-16T16:14:12;16.90;99.90
31309;DHT22;17936;52.446;10.840;2022-10-16T16:16:38;16.70;99.90
31309;DHT22;17936;52.446;10.840;2022-10-16T16:19:04;16.60;99.90
31309;DHT22;17936;52.446;10.840;2022-10-16T16:21:31;16.40;99.90
31309;DHT22;17936;52.446;10.840;2022-10-16T16:23:57;16.40;99.90
31309;DHT22;17936;52.446;10.840;2022-10-16T16:26:27;16.30;99.90
31309;DHT22;17936;52.446;10.840;2022-10-16T16:28:57;16.30;99.90
31309;DHT22;17936;52.446;10.840;2022-10-16T16:31:27;16.00;99.90
31309;DHT22;17936;52.446;10.840;2022-10-16T16:33:53;15.90;99.90
31309;DHT22;17936;52.446;10.840;2022-10-16T16:36:19;15.90;99.90
31309;DHT22;17936;52.446;10.840;2022-10-16T16:38:45;15.80;99.90
31309;DHT22;17936;52.446;10.840;2022-10-16T16:41:13;15.80;99.90
31309;DHT22;17936;52.446;10.840;2022-10-16T16:43:39;15.80;99.90
31309;DHT22;17936;52.446;10.840;2022-10-16T16:46:04;15.70;99.90
31309;DHT22;17936;52.446;10.840;2022-10-16T16:48:30;15.60;99.90
31309;DHT22;17936;52.446;10.840;2022-10-16T16:50:56;15.70;99.90
31309;DHT22;17936;52.446;10.840;2022-10-16T16:53:22;15.60;99.90
31309;DHT22;17936;52.446;10.840;2022-10-16T16:55:47;15.40;99.90
31309;DHT22;17936;52.446;10.840;2022-10-16T16:58:13;15.30;99.90
31309;DHT22;17936;52.446;10.840;2022-10-16T17:00:45;15.30;99.90
31309;DHT22;17936;52.446;10.840;2022-10-16T17:03:11;15.10;99.90
31309;DHT22;17936;52.446;10.840;2022-10-16T17:05:36;15.20;99.90
31309;DHT22;17936;52.446;10.840;2022-10-16T17:08:02;14.90;99.90
31309;DHT22;17936;52.446;10.840;2022-10-16T17:10:27;14.70;99.90
31309;DHT22;17936;52.446;10.840;2022-10-16T17:12:53;14.60;99.90
31309;DHT22;17936;52.446;10.840;2022-10-16T17:15:18;14.80;99.90
31309;DHT22;17936;52.446;10.840;2022-10-16T17:17:44;14.80;99.90
31309;DHT22;17936;52.446;10.840;2022-10-16T17:20:09;14.80;99.90
31309;DHT22;17936;52.446;10.840;2022-10-16T17:22:35;14.80;99.90
31309;DHT22;17936;52.446;10.840;2022-10-16T17:25:01;14.50;99.90
31309;DHT22;17936;52.446;10.840;2022-10-16T17:27:28;14.40;99.90
31309;DHT22;17936;52.446;10.840;2022-10-16T17:29:54;14.40;99.90
31309;DHT22;17936;52.446;10.840;2022-10-16T17:32:19;14.20;99.90
31309;DHT22;17936;52.446;10.840;2022-10-16T17:34:46;14.10;99.90
31309;DHT22;17936;52.446;10.840;2022-10-16T17:37:12;14.10;99.90
31309;DHT22;17936;52.446;10.840;2022-10-16T17:39:37;14.10;99.90
31309;DHT22;17936;52.446;10.840;2022-10-16T17:42:03;14.00;99.90
31309;DHT22;17936;52.446;10.840;2022-10-16T17:44:28;14.10;99.90
31309;DHT22;17936;52.446;10.840;2022-10-16T17:46:54;14.20;99.90
31309;DHT22;17936;52.446;10.840;2022-10-16T17:49:19;14.20;99.90
31309;DHT22;17936;52.446;10.840;2022-10-16T17:51:45;14.10;99.90
31309;DHT22;17936;52.446;10.840;2022-10-16T17:54:13;14.20;99.90
31309;DHT22;17936;52.446;10.840;2022-10-16T17:56:40;14.20;99.90
31309;DHT22;17936;52.446;10.840;2022-10-16T17:59:05;14.10;99.90
31309;DHT22;17936;52.446;10.840;2022-10-16T18:01:37;14.10;99.90
31309;DHT22;17936;52.446;10.840;2022-10-16T18:04:13;14.10;99.90
31309;DHT22;17936;52.446;10.840;2022-10-16T18:06:40;13.90;99.90
31309;DHT22;17936;52.446;10.840;2022-10-16T18:09:07;14.00;99.90
31309;DHT22;17936;52.446;10.840;2022-10-16T18:11:34;14.20;99.90
31309;DHT22;17936;52.446;10.840;2022-10-16T18:13:59;14.20;99.90
31309;DHT22;17936;52.446;10.840;2022-10-16T18:16:27;14.10;99.90
31309;DHT22;17936;52.446;10.840;2022-10-16T18:18:53;14.10;99.90
31309;DHT22;17936;52.446;10.840;2022-10-16T18:21:19;14.20;99.90
31309;DHT22;17936;52.446;10.840;2022-10-16T18:23:45;14.30;99.90
31309;DHT22;17936;52.446;10.840;2022-10-16T18:26:12;14.30;99.90
31309;DHT22;17936;52.446;10.840;2022-10-16T18:28:38;14.30;99.90
31309;DHT22;17936;52.446;10.840;2022-10-16T18:31:06;13.90;99.90
31309;DHT22;17936;52.446;10.840;2022-10-16T18:33:33;14.00;99.90
31309;DHT22;17936;52.446;10.840;2022-10-16T18:36:03;14.00;99.90
31309;DHT22;17936;52.446;10.840;2022-10-16T18:38:29;14.00;99.90
31309;DHT22;17936;52.446;10.840;2022-10-16T18:40:55;14.00;99.90
31309;DHT22;17936;52.446;10.840;2022-10-16T18:43:21;14.00;99.90
31309;DHT22;17936;52.446;10.840;2022-10-16T18:46:04;13.90;99.90
31309;DHT22;17936;52.446;10.840;2022-10-16T18:48:30;13.70;99.90
31309;DHT22;17936;52.446;10.840;2022-10-16T18:51:17;13.80;99.90
31309;DHT22;17936;52.446;10.840;2022-10-16T18:53:45;13.80;99.90